Time;durP1;ratioP1;P1;durP2;ratioP2;P2;SDS_P1;SDS_P2;PMS_P1;PMS_P2;Temp;Humidity;BMP_temperature;BMP_pressure;BME280_temperature;BME280_humidity;BME280_pressure;Samples;Min_cycle;Max_cycle;Signal;HPM_P1;HPM_P2
2024/02/17 00:02:02;;;;;;;13.43;4.95;;;8.60;99.90;;;;;;5027546;28;20044;-71
2024/02/17 00:04:28;;;;;;;12.05;4.10;;;8.60;99.90;;;;;;5023053;28;20049;-71
2024/02/17 00:06:54;;;;;;;16.63;5.55;;;8.60;99.90;;;;;;5007512;28;20390;-71
2024/02/17 00:09:20;;;;;;;17.40;5.55;;;8.60;99.90;;;;;;5029191;28;20106;-72
2024/02/17 00:11:46;;;;;;;19.02;6.28;;;8.60;99.90;;;;;;5026663;28;20041;-71
2024/02/17 00:14:12;;;;;;;14.25;5.88;;;8.60;99.90;;;;;;5026869;28;20081;-71
2024/02/17 00:16:37;;;;;;;18.95;5.55;;;8.60;99.90;;;;;;5025879;28;20090;-71
2024/02/17 00:19:04;;;;;;;11.18;3.58;;;8.60;99.90;;;;;;5025964;28;20055;-71
2024/02/17 00:21:30;;;;;;;15.95;5.43;;;8.60;99.90;;;;;;4989422;28;20599;-72
2024/02/17 00:23:56;;;;;;;21.52;6.50;;;8.60;99.90;;;;;;5024473;28;20044;-71
2024/02/17 00:26:22;;;;;;;20.30;6.30;;;8.60;99.90;;;;;;5008885;28;20451;-72
2024/02/17 00:28:48;;;;;;;16.80;6.10;;;8.60;99.90;;;;;;5026816;28;20274;-71
2024/02/17 00:31:14;;;;;;;16.45;5.18;;;8.50;99.90;;;;;;5010572;28;20044;-72
2024/02/17 00:33:39;;;;;;;25.42;6.05;;;8.50;99.90;;;;;;5010335;28;20044;-71
2024/02/17 00:36:06;;;;;;;18.33;5.88;;;8.50;99.90;;;;;;5022778;28;20037;-71
2024/02/17 00:38:31;;;;;;;16.48;5.07;;;8.50;99.90;;;;;;5025108;28;20040;-71
2024/02/17 00:40:57;;;;;;;13.82;5.40;;;8.50;99.90;;;;;;5023848;28;20421;-71
2024/02/17 00:43:23;;;;;;;17.15;5.47;;;8.50;99.90;;;;;;5026191;28;20086;-72
2024/02/17 00:45:49;;;;;;;14.20;4.60;;;8.50;99.90;;;;;;5023867;28;20128;-71
2024/02/17 00:48:16;;;;;;;15.80;5.40;;;8.50;99.90;;;;;;5027803;28;20124;-71
2024/02/17 00:50:42;;;;;;;20.90;5.43;;;8.50;99.90;;;;;;5027337;28;20063;-72
2024/02/17 00:53:08;;;;;;;19.45;4.88;;;8.50;99.90;;;;;;5030673;28;20080;-72
2024/02/17 00:55:34;;;;;;;16.48;4.57;;;8.50;99.90;;;;;;5041400;28;20053;-72
2024/02/17 00:58:03;;;;;;;20.13;5.22;;;8.50;99.90;;;;;;5042980;28;20052;-72
2024/02/17 01:00:30;;;;;;;19.13;6.10;;;8.50;99.90;;;;;;5022562;28;20151;-72
2024/02/17 01:02:55;;;;;;;9.73;3.90;;;8.50;99.90;;;;;;5016861;28;20472;-71
2024/02/17 01:05:21;;;;;;;19.45;6.35;;;8.50;99.90;;;;;;5028848;28;20131;-72
2024/02/17 01:07:47;;;;;;;18.10;5.50;;;8.50;99.90;;;;;;5023618;28;20064;-72
2024/02/17 01:10:13;;;;;;;15.90;5.43;;;8.60;99.90;;;;;;5016258;28;20183;-71
2024/02/17 01:12:40;;;;;;;16.15;4.97;;;8.50;99.90;;;;;;5019174;28;20048;-72
2024/02/17 01:15:06;;;;;;;20.35;6.10;;;8.50;99.90;;;;;;5021284;28;20123;-71
2024/02/17 01:17:31;;;;;;;18.92;5.82;;;8.50;99.90;;;;;;5016264;28;20107;-72
2024/02/17 01:19:57;;;;;;;15.90;4.32;;;8.50;99.90;;;;;;5016394;28;20049;-72
2024/02/17 01:22:24;;;;;;;22.55;6.10;;;8.50;99.90;;;;;;5023962;28;20048;-72
2024/02/17 01:24:50;;;;;;;15.27;4.90;;;8.40;99.90;;;;;;5017465;28;20098;-72
2024/02/17 01:27:16;;;;;;;24.42;5.03;;;8.40;99.90;;;;;;5038377;28;20765;-71
2024/02/17 01:29:41;;;;;;;16.60;6.18;;;8.40;99.90;;;;;;5006471;28;20549;-72
2024/02/17 01:32:07;;;;;;;16.35;5.55;;;8.40;99.90;;;;;;5022406;28;20124;-71
2024/02/17 01:34:33;;;;;;;19.98;6.13;;;8.40;99.90;;;;;;5025475;28;20154;-71
2024/02/17 01:36:59;;;;;;;16.60;4.10;;;8.40;99.90;;;;;;5004105;28;20075;-72
2024/02/17 01:39:25;;;;;;;18.90;5.07;;;8.20;99.90;;;;;;5007604;28;20048;-71
2024/02/17 01:41:51;;;;;;;15.73;5.28;;;8.30;99.90;;;;;;5040528;28;20461;-71
2024/02/17 01:44:16;;;;;;;18.67;5.00;;;8.30;99.90;;;;;;5039196;28;20044;-72
2024/02/17 01:46:42;;;;;;;16.88;5.57;;;8.30;99.90;;;;;;5007789;28;20073;-71
2024/02/17 01:49:09;;;;;;;17.00;5.95;;;8.30;99.90;;;;;;5023668;28;20060;-72
2024/02/17 01:51:35;;;;;;;19.17;5.55;;;8.30;99.90;;;;;;5022493;28;20205;-71
2024/02/17 01:54:01;;;;;;;20.10;6.55;;;8.30;99.90;;;;;;5024744;28;20044;-72
2024/02/17 01:56:28;;;;;;;21.25;5.78;;;8.30;99.90;;;;;;5024005;28;20079;-72
2024/02/17 01:58:55;;;;;;;15.40;5.43;;;8.30;99.90;;;;;;5040765;28;20048;-71
2024/02/17 02:01:21;;;;;;;19.58;4.65;;;8.30;99.90;;;;;;5007750;28;20040;-72
2024/02/17 02:03:47;;;;;;;22.58;6.55;;;8.30;99.90;;;;;;5005729;28;20094;-71
2024/02/17 02:06:13;;;;;;;19.13;5.78;;;8.30;99.90;;;;;;5019850;28;20110;-71
2024/02/17 02:08:39;;;;;;;18.83;5.85;;;8.30;99.90;;;;;;5003515;28;20422;-71
2024/02/17 02:11:05;;;;;;;20.90;6.53;;;8.30;99.90;;;;;;5024178;28;20443;-72
2024/02/17 02:13:31;;;;;;;15.88;5.55;;;8.30;99.90;;;;;;5004760;28;20072;-71
2024/02/17 02:15:57;;;;;;;15.77;5.95;;;8.30;99.90;;;;;;5027330;28;20128;-71
2024/02/17 02:18:23;;;;;;;15.95;4.75;;;8.30;99.90;;;;;;5038262;28;20053;-71
2024/02/17 02:20:49;;;;;;;16.30;5.15;;;8.30;99.90;;;;;;5023184;28;20047;-71
2024/02/17 02:23:15;;;;;;;15.60;5.18;;;8.20;99.90;;;;;;5021759;28;20167;-71
2024/02/17 02:25:52;;;;;;;21.15;4.53;;;8.20;99.90;;;;;;5020781;28;20180;-71
2024/02/17 02:28:18;;;;;;;13.50;4.60;;;8.20;99.90;;;;;;5004134;28;20479;-71
2024/02/17 02:30:45;;;;;;;16.20;4.68;;;8.20;99.90;;;;;;5025719;28;20047;-71
2024/02/17 02:33:11;;;;;;;13.57;4.30;;;8.20;99.90;;;;;;5018954;28;20041;-71
2024/02/17 02:35:37;;;;;;;13.60;4.68;;;8.10;99.90;;;;;;4990479;28;20059;-71
2024/02/17 02:38:03;;;;;;;17.95;5.70;;;8.20;99.90;;;;;;5025284;28;20344;-71
2024/02/17 02:40:29;;;;;;;17.90;4.63;;;8.20;99.90;;;;;;5023683;28;20044;-71
2024/02/17 02:42:56;;;;;;;12.25;4.03;;;8.20;99.90;;;;;;5025412;28;20052;-71
2024/02/17 02:45:22;;;;;;;12.23;4.20;;;8.20;99.90;;;;;;5028203;28;20463;-71
2024/02/17 02:47:47;;;;;;;18.15;4.55;;;8.20;99.90;;;;;;5022973;28;20051;-71
2024/02/17 02:50:14;;;;;;;11.43;3.67;;;8.20;99.90;;;;;;5021747;28;20069;-71
2024/02/17 02:52:39;;;;;;;10.43;3.67;;;8.20;99.90;;;;;;5023549;28;20041;-71
2024/02/17 02:55:06;;;;;;;21.85;5.13;;;8.20;99.90;;;;;;5022144;28;20048;-71
2024/02/17 02:57:32;;;;;;;14.32;5.15;;;8.20;99.90;;;;;;5008854;28;20048;-71
2024/02/17 02:59:58;;;;;;;18.85;5.28;;;8.20;99.90;;;;;;4989212;28;20395;-71
2024/02/17 03:02:24;;;;;;;19.85;5.43;;;8.10;99.90;;;;;;5030019;28;20056;-71
2024/02/17 03:04:52;;;;;;;12.82;4.60;;;8.20;99.90;;;;;;5025108;28;20049;-71
2024/02/17 03:07:17;;;;;;;13.90;4.53;;;8.10;99.90;;;;;;5027204;28;20048;-71
2024/02/17 03:09:44;;;;;;;14.48;3.92;;;8.20;99.90;;;;;;5024661;28;20445;-72
2024/02/17 03:12:10;;;;;;;10.95;3.53;;;8.20;99.90;;;;;;5023538;28;20442;-71
2024/02/17 03:14:37;;;;;;;16.75;4.38;;;8.10;99.90;;;;;;5028909;28;20047;-71
2024/02/17 03:17:04;;;;;;;14.55;4.68;;;8.10;99.90;;;;;;5029638;28;20059;-72
2024/02/17 03:19:29;;;;;;;15.32;4.93;;;8.10;99.90;;;;;;5025837;28;20044;-71
2024/02/17 03:21:56;;;;;;;11.30;3.42;;;8.10;99.90;;;;;;5024270;28;20403;-71
2024/02/17 03:24:21;;;;;;;14.75;3.95;;;8.10;99.90;;;;;;5028351;28;20445;-71
2024/02/17 03:26:47;;;;;;;8.50;2.92;;;8.10;99.90;;;;;;5011608;28;20491;-71
2024/02/17 03:29:13;;;;;;;13.43;3.95;;;8.10;99.90;;;;;;5029946;28;20115;-72
2024/02/17 03:31:39;;;;;;;13.07;4.00;;;8.10;99.90;;;;;;5009624;28;20028;-71
2024/02/17 03:34:05;;;;;;;11.77;3.60;;;8.10;99.90;;;;;;4993962;28;20045;-71
2024/02/17 03:36:32;;;;;;;17.20;4.38;;;8.00;99.90;;;;;;4992134;28;20107;-71
2024/02/17 03:38:58;;;;;;;7.75;3.15;;;8.00;99.90;;;;;;5045787;28;20064;-71
2024/02/17 03:41:24;;;;;;;11.52;3.60;;;8.10;99.90;;;;;;4992762;28;20574;-71
2024/02/17 03:43:50;;;;;;;9.15;3.40;;;8.00;99.90;;;;;;5046462;28;20084;-71
2024/02/17 03:46:15;;;;;;;13.25;3.50;;;8.00;99.90;;;;;;4990647;28;20044;-71
2024/02/17 03:48:42;;;;;;;11.68;3.90;;;8.00;99.90;;;;;;5010182;28;20494;-71
2024/02/17 03:51:07;;;;;;;15.63;3.72;;;8.00;99.90;;;;;;5009819;28;20516;-71
2024/02/17 03:53:35;;;;;;;12.85;4.28;;;8.00;99.90;;;;;;5039726;28;20049;-71
2024/02/17 03:56:01;;;;;;;10.40;2.70;;;7.90;99.90;;;;;;5022532;28;20052;-72
2024/02/17 03:58:27;;;;;;;16.48;5.28;;;7.90;99.90;;;;;;5014172;28;20625;-72
2024/02/17 04:00:53;;;;;;;6.15;2.15;;;7.90;99.90;;;;;;5027930;28;20044;-71
2024/02/17 04:03:19;;;;;;;10.30;1.77;;;7.80;99.90;;;;;;5026398;28;20040;-72
2024/02/17 04:05:45;;;;;;;3.65;1.60;;;7.80;99.90;;;;;;5010598;28;20040;-71
2024/02/17 04:08:10;;;;;;;3.85;1.27;;;7.70;99.90;;;;;;5011851;28;20174;-72
2024/02/17 04:10:37;;;;;;;8.18;1.65;;;7.70;99.90;;;;;;5026785;28;20066;-71
2024/02/17 04:13:03;;;;;;;5.47;1.30;;;7.80;99.90;;;;;;5013019;28;20087;-72
2024/02/17 04:15:29;;;;;;;6.93;1.67;;;7.70;99.90;;;;;;5026272;28;20127;-71
2024/02/17 04:17:55;;;;;;;6.97;1.48;;;7.80;99.90;;;;;;5007521;28;20072;-71
2024/02/17 04:20:20;;;;;;;12.25;2.60;;;7.70;99.90;;;;;;5029298;28;20119;-71
2024/02/17 04:22:46;;;;;;;18.58;5.25;;;7.70;99.90;;;;;;5019926;28;20044;-71
2024/02/17 04:25:12;;;;;;;12.63;3.70;;;7.70;99.90;;;;;;5023824;28;20045;-71
2024/02/17 04:27:38;;;;;;;10.75;2.85;;;7.70;99.90;;;;;;5031277;28;20405;-71
2024/02/17 04:30:05;;;;;;;18.27;5.70;;;7.60;99.90;;;;;;5033753;28;20041;-71
2024/02/17 04:32:30;;;;;;;7.88;3.55;;;7.70;99.90;;;;;;5025148;28;20547;-71
2024/02/17 04:34:56;;;;;;;9.57;3.88;;;7.60;99.90;;;;;;5034913;28;20040;-71
2024/02/17 04:37:22;;;;;;;7.95;2.28;;;7.60;99.90;;;;;;4991817;28;20535;-71
2024/02/17 04:39:48;;;;;;;2.60;0.90;;;7.60;99.90;;;;;;5007976;28;20055;-71
2024/02/17 04:42:17;;;;;;;3.67;0.73;;;7.50;99.90;;;;;;5026019;28;20053;-71
2024/02/17 04:44:42;;;;;;;6.07;1.10;;;7.60;99.90;;;;;;5043992;28;20051;-71
2024/02/17 04:47:08;;;;;;;6.13;1.90;;;7.50;99.90;;;;;;4993547;28;20067;-71
2024/02/17 04:49:34;;;;;;;10.88;1.63;;;7.50;99.90;;;;;;5041091;28;20055;-71
2024/02/17 04:52:06;;;;;;;4.25;0.40;;;7.50;99.90;;;;;;5006982;28;20172;-71
2024/02/17 04:54:32;;;;;;;4.00;0.40;;;7.40;99.90;;;;;;5028977;28;20053;-71
2024/02/17 04:56:57;;;;;;;7.35;0.82;;;7.40;99.90;;;;;;5041878;28;20067;-71
2024/02/17 04:59:23;;;;;;;5.70;0.60;;;7.30;99.90;;;;;;5024881;28;20056;-71
2024/02/17 05:01:49;;;;;;;2.47;0.63;;;7.30;99.90;;;;;;5022989;28;20415;-71
2024/02/17 05:04:15;;;;;;;5.28;0.63;;;7.20;99.90;;;;;;5025277;28;20110;-71
2024/02/17 05:06:40;;;;;;;3.90;0.63;;;7.20;99.90;;;;;;5041191;28;20060;-71
2024/02/17 05:09:07;;;;;;;7.57;1.00;;;7.10;99.90;;;;;;5021407;28;20593;-71
2024/02/17 05:11:33;;;;;;;4.95;1.20;;;7.10;99.90;;;;;;5007584;28;20049;-71
2024/02/17 05:13:59;;;;;;;2.47;0.82;;;7.00;99.90;;;;;;5013831;28;20510;-71
2024/02/17 05:16:26;;;;;;;8.02;1.55;;;7.00;99.90;;;;;;5009514;28;20049;-71
2024/02/17 05:18:51;;;;;;;6.22;1.65;;;6.90;99.90;;;;;;5041627;28;20076;-71
2024/02/17 05:21:17;;;;;;;3.38;0.90;;;6.90;99.90;;;;;;5024164;28;20508;-71
2024/02/17 05:23:43;;;;;;;2.03;0.90;;;6.90;99.90;;;;;;5024672;28;20083;-70
2024/02/17 05:26:08;;;;;;;2.50;0.82;;;6.90;99.90;;;;;;5024378;28;20045;-71
2024/02/17 05:28:34;;;;;;;4.00;1.10;;;6.90;99.90;;;;;;5026761;28;20059;-70
2024/02/17 05:31:00;;;;;;;3.95;0.90;;;6.90;99.90;;;;;;5007276;28;20640;-70
2024/02/17 05:33:26;;;;;;;2.13;0.80;;;6.90;99.90;;;;;;5010407;28;20044;-70
2024/02/17 05:35:53;;;;;;;2.47;0.70;;;6.90;99.90;;;;;;5030816;28;20053;-70
2024/02/17 05:38:18;;;;;;;5.88;1.05;;;6.90;99.90;;;;;;4992286;28;20372;-70
2024/02/17 05:40:44;;;;;;;8.27;2.85;;;7.00;99.90;;;;;;5027241;28;20049;-71
2024/02/17 05:43:10;;;;;;;17.63;2.65;;;7.00;99.90;;;;;;5006690;28;20041;-70
2024/02/17 05:45:35;;;;;;;7.50;1.60;;;6.90;99.90;;;;;;5024644;28;20102;-71
2024/02/17 05:48:01;;;;;;;6.78;1.80;;;6.90;99.90;;;;;;5006936;28;20399;-70
2024/02/17 05:50:27;;;;;;;4.65;1.77;;;6.90;99.90;;;;;;5007293;28;20053;-70
2024/02/17 05:52:52;;;;;;;5.70;3.25;;;6.90;99.90;;;;;;4993725;28;20057;-71
2024/02/17 05:55:18;;;;;;;4.82;2.88;;;6.80;99.90;;;;;;5020924;28;20589;-71
2024/02/17 05:57:44;;;;;;;7.47;2.75;;;6.80;99.90;;;;;;5019775;28;20103;-71
2024/02/17 06:00:10;;;;;;;5.50;1.17;;;6.80;99.90;;;;;;4989216;28;20053;-71
2024/02/17 06:02:36;;;;;;;7.28;2.00;;;6.80;99.90;;;;;;4990187;28;20056;-71
2024/02/17 06:05:02;;;;;;;4.57;3.13;;;6.80;99.90;;;;;;5003200;28;20049;-70
2024/02/17 06:07:28;;;;;;;8.23;3.45;;;6.80;99.90;;;;;;4992019;28;20052;-70
2024/02/17 06:09:54;;;;;;;8.00;3.88;;;6.80;99.90;;;;;;4995990;28;20045;-70
2024/02/17 06:12:20;;;;;;;6.95;2.97;;;6.90;99.90;;;;;;4999015;28;20045;-71
2024/02/17 06:14:45;;;;;;;7.40;3.55;;;6.80;99.90;;;;;;5002638;28;20049;-71
2024/02/17 06:17:22;;;;;;;12.82;4.43;;;6.90;99.90;;;;;;5027269;28;20053;-71
2024/02/17 06:22:33;;;;;;;5.20;1.05;;;6.90;99.90;;;;;;5003141;28;20081;-71
2024/02/17 06:24:59;;;;;;;2.50;0.70;;;6.80;99.90;;;;;;5003678;28;20053;-71
2024/02/17 06:27:25;;;;;;;2.47;0.40;;;6.80;99.90;;;;;;5001708;28;20525;-71
2024/02/17 06:29:50;;;;;;;1.52;0.52;;;6.70;99.90;;;;;;5002894;28;20053;-71
2024/02/17 06:32:16;;;;;;;2.50;0.50;;;6.60;99.90;;;;;;5003006;28;20496;-71
2024/02/17 06:34:42;;;;;;;2.00;0.38;;;6.60;99.90;;;;;;4989234;28;20143;-71
2024/02/17 06:37:08;;;;;;;2.72;0.60;;;6.50;99.90;;;;;;5004741;28;20053;-71
2024/02/17 06:39:34;;;;;;;1.20;0.28;;;6.50;99.90;;;;;;4987530;28;20415;-71
2024/02/17 06:42:00;;;;;;;2.80;0.57;;;6.40;99.90;;;;;;4970968;28;20038;-71
2024/02/17 06:44:27;;;;;;;3.35;0.75;;;6.30;99.90;;;;;;4997181;28;20049;-70
2024/02/17 06:46:53;;;;;;;3.28;0.80;;;6.30;99.90;;;;;;4987617;28;20166;-71
2024/02/17 06:49:22;;;;;;;2.28;0.50;;;6.30;99.90;;;;;;4992196;28;20051;-71
2024/02/17 06:51:48;;;;;;;4.95;0.93;;;6.20;99.90;;;;;;5013815;28;20142;-71
2024/02/17 06:54:13;;;;;;;8.30;1.80;;;6.20;99.90;;;;;;5021513;28;20391;-71
2024/02/17 06:56:39;;;;;;;6.22;1.30;;;6.10;99.90;;;;;;5012726;28;20504;-71
2024/02/17 06:59:05;;;;;;;9.68;1.42;;;6.20;99.90;;;;;;5005912;28;20045;-71
2024/02/17 07:01:31;;;;;;;10.75;2.28;;;6.10;99.90;;;;;;5015989;28;20045;-70
2024/02/17 07:03:57;;;;;;;5.03;1.20;;;6.20;99.90;;;;;;5022684;28;20076;-71
2024/02/17 07:06:22;;;;;;;9.32;2.53;;;6.20;99.90;;;;;;5022737;28;20109;-71
2024/02/17 07:08:48;;;;;;;13.00;3.05;;;6.20;99.90;;;;;;4998699;28;20058;-70
2024/02/17 07:11:14;;;;;;;11.73;2.58;;;6.20;99.90;;;;;;5026282;28;20056;-71
2024/02/17 07:13:43;;;;;;;6.82;1.67;;;6.20;99.90;;;;;;5000709;28;20050;-71
2024/02/17 07:16:09;;;;;;;5.57;1.30;;;6.30;99.90;;;;;;5015469;28;20447;-71
2024/02/17 07:18:37;;;;;;;6.57;0.77;;;6.30;99.90;;;;;;5010620;28;20050;-71
2024/02/17 07:21:04;;;;;;;4.72;0.63;;;6.40;99.90;;;;;;5020257;28;20056;-71
2024/02/17 07:23:30;;;;;;;4.35;0.68;;;6.40;99.90;;;;;;4992327;28;20578;-71
2024/02/17 07:25:57;;;;;;;1.20;0.43;;;6.40;99.90;;;;;;5005069;28;20049;-71
2024/02/17 07:28:22;;;;;;;2.47;0.68;;;6.40;99.90;;;;;;5016452;28;20574;-71
2024/02/17 07:30:49;;;;;;;8.18;1.20;;;6.50;99.90;;;;;;5024322;28;20045;-71
2024/02/17 07:33:16;;;;;;;7.50;0.93;;;6.50;99.90;;;;;;5017566;28;20041;-71
2024/02/17 07:35:44;;;;;;;13.07;2.08;;;6.50;99.90;;;;;;5017242;28;20052;-71
2024/02/17 07:38:11;;;;;;;6.88;1.58;;;6.60;99.90;;;;;;5023500;28;20056;-71
2024/02/17 07:40:37;;;;;;;4.10;0.90;;;6.60;99.90;;;;;;5022588;28;20045;-71
2024/02/17 07:43:04;;;;;;;6.35;1.00;;;6.60;99.90;;;;;;5013038;28;20482;-70
2024/02/17 07:45:31;;;;;;;5.68;1.05;;;6.70;99.90;;;;;;4997403;28;20051;-70
2024/02/17 07:47:57;;;;;;;6.05;0.95;;;6.70;99.90;;;;;;5007240;28;20410;-71
2024/02/17 07:50:22;;;;;;;8.80;1.00;;;6.70;99.90;;;;;;5038604;28;20064;-71
2024/02/17 07:52:48;;;;;;;6.88;1.73;;;6.70;99.90;;;;;;5010885;28;20052;-70
2024/02/17 07:55:14;;;;;;;5.07;0.90;;;6.70;99.90;;;;;;5028180;28;20518;-71
2024/02/17 07:57:40;;;;;;;8.15;1.95;;;6.70;99.90;;;;;;5017094;28;20120;-71
2024/02/17 08:00:06;;;;;;;10.27;1.50;;;6.70;99.90;;;;;;5027492;28;20040;-71
2024/02/17 08:02:32;;;;;;;9.35;1.73;;;6.70;99.90;;;;;;5022379;28;20131;-71
2024/02/17 08:04:58;;;;;;;12.73;2.25;;;6.80;99.90;;;;;;5013988;28;20167;-71
2024/02/17 08:07:24;;;;;;;7.10;1.70;;;6.70;99.90;;;;;;5025663;28;20041;-70
2024/02/17 08:09:50;;;;;;;3.08;1.42;;;6.80;99.90;;;;;;5014220;28;20045;-71
2024/02/17 08:12:16;;;;;;;11.93;1.63;;;6.80;99.90;;;;;;5007955;28;20048;-71
2024/02/17 08:14:42;;;;;;;6.22;1.80;;;6.90;99.90;;;;;;5032136;28;20048;-71
2024/02/17 08:17:08;;;;;;;10.38;1.27;;;6.90;99.90;;;;;;5022191;28;20570;-70
2024/02/17 08:19:34;;;;;;;6.47;1.58;;;6.90;99.90;;;;;;5019621;28;20041;-70
2024/02/17 08:22:00;;;;;;;12.20;1.17;;;7.00;99.90;;;;;;5022833;28;20656;-71
2024/02/17 08:24:26;;;;;;;9.05;2.08;;;7.00;99.90;;;;;;5011436;28;20052;-71
2024/02/17 08:26:52;;;;;;;9.10;1.45;;;7.00;99.90;;;;;;5042038;28;20076;-71
2024/02/17 08:29:20;;;;;;;12.68;1.65;;;7.10;99.90;;;;;;5027535;28;20053;-71
2024/02/17 08:31:50;;;;;;;13.10;1.98;;;7.00;99.90;;;;;;5006116;28;20045;-70
2024/02/17 08:34:16;;;;;;;15.40;2.05;;;7.10;99.90;;;;;;5018504;28;20613;-71
2024/02/17 08:36:42;;;;;;;15.63;2.97;;;7.10;99.90;;;;;;5003849;28;20049;-71
2024/02/17 08:39:13;;;;;;;9.43;1.00;;;7.10;99.90;;;;;;5035150;28;20049;-71
2024/02/17 08:41:39;;;;;;;7.85;1.02;;;7.20;99.90;;;;;;5006719;28;20090;-71
2024/02/17 08:44:04;;;;;;;10.02;1.40;;;7.20;99.90;;;;;;5011302;28;20049;-71
2024/02/17 08:46:30;;;;;;;6.15;1.40;;;7.30;99.90;;;;;;5019320;28;20042;-70
2024/02/17 08:48:56;;;;;;;10.48;2.17;;;7.30;99.90;;;;;;5024844;28;20535;-71
2024/02/17 08:51:22;;;;;;;16.30;1.50;;;7.30;99.90;;;;;;5007904;28;20057;-71
2024/02/17 08:53:47;;;;;;;4.20;1.00;;;7.40;99.90;;;;;;5025737;28;20090;-71
2024/02/17 08:56:13;;;;;;;8.65;1.35;;;7.40;99.90;;;;;;5024114;28;20082;-71
2024/02/17 08:58:39;;;;;;;7.38;1.70;;;7.40;99.90;;;;;;5007467;28;20675;-70
2024/02/17 09:01:06;;;;;;;10.02;1.73;;;7.30;99.90;;;;;;5011026;28;20041;-71
2024/02/17 09:03:32;;;;;;;5.78;1.02;;;7.40;99.90;;;;;;5026008;28;20674;-70
2024/02/17 09:05:58;;;;;;;14.27;2.05;;;7.40;99.90;;;;;;5023427;28;20552;-70
2024/02/17 09:08:23;;;;;;;7.95;1.83;;;7.40;99.90;;;;;;5024293;28;20072;-71
2024/02/17 09:10:49;;;;;;;11.00;1.67;;;7.40;99.90;;;;;;5026978;28;20044;-71
2024/02/17 09:13:15;;;;;;;10.52;2.17;;;7.50;99.90;;;;;;5007401;28;20393;-70
2024/02/17 09:15:41;;;;;;;13.55;3.55;;;7.50;99.90;;;;;;5004829;28;20103;-70
2024/02/17 09:18:07;;;;;;;18.40;3.90;;;7.60;99.90;;;;;;5008139;28;20496;-71
2024/02/17 09:20:32;;;;;;;12.38;2.03;;;7.60;99.90;;;;;;5006700;28;20096;-70
2024/02/17 09:22:58;;;;;;;18.20;3.38;;;7.60;99.90;;;;;;5021655;28;20785;-70
2024/02/17 09:25:24;;;;;;;9.77;2.28;;;7.50;99.90;;;;;;5040293;28;20650;-70
2024/02/17 09:27:49;;;;;;;11.88;2.67;;;7.40;99.90;;;;;;5023962;28;20048;-70
2024/02/17 09:30:15;;;;;;;15.88;2.60;;;7.40;99.90;;;;;;5022355;28;20507;-70
2024/02/17 09:32:41;;;;;;;14.73;2.85;;;7.50;99.90;;;;;;5024332;28;20462;-70
2024/02/17 09:35:07;;;;;;;12.15;2.95;;;7.50;99.90;;;;;;5023276;28;20071;-70
2024/02/17 09:37:33;;;;;;;16.27;3.92;;;7.60;99.90;;;;;;5021197;28;20079;-70
2024/02/17 09:39:59;;;;;;;14.98;1.92;;;7.70;99.90;;;;;;5023287;28;20049;-70
2024/02/17 09:42:25;;;;;;;17.15;1.77;;;7.70;99.90;;;;;;5028461;28;20056;-70
2024/02/17 09:44:52;;;;;;;15.90;2.60;;;7.70;99.90;;;;;;5048757;28;20476;-70
2024/02/17 09:47:18;;;;;;;8.75;1.60;;;7.80;99.90;;;;;;5021015;28;20033;-70
2024/02/17 09:49:44;;;;;;;10.30;1.50;;;7.80;99.90;;;;;;5014244;28;20093;-70
2024/02/17 09:52:11;;;;;;;7.95;1.25;;;7.90;99.90;;;;;;5025601;28;20063;-70
2024/02/17 09:54:38;;;;;;;8.73;1.50;;;8.00;99.90;;;;;;5021489;28;20490;-70
2024/02/17 09:57:05;;;;;;;12.93;1.65;;;8.00;99.90;;;;;;5023460;28;20056;-70
2024/02/17 09:59:31;;;;;;;12.52;1.40;;;8.00;99.90;;;;;;5019456;28;20330;-70
2024/02/17 10:01:57;;;;;;;14.65;3.05;;;8.00;99.90;;;;;;5018354;28;20087;-70
2024/02/17 10:04:23;;;;;;;11.13;1.85;;;8.00;99.90;;;;;;5017113;28;20088;-70
2024/02/17 10:07:03;;;;;;;10.00;2.28;;;7.90;99.90;;;;;;5016965;28;20949;-70
2024/02/17 10:09:29;;;;;;;14.88;3.45;;;7.90;99.90;;;;;;5012358;28;20057;-70
2024/02/17 10:11:55;;;;;;;15.30;2.28;;;7.90;99.90;;;;;;5023199;28;20057;-70
2024/02/17 10:14:29;;;;;;;10.23;1.58;;;8.00;99.90;;;;;;5037574;28;20510;-70
2024/02/17 10:17:00;;;;;;;10.88;1.45;;;7.90;99.90;;;;;;5019700;28;20053;-70
2024/02/17 10:19:28;;;;;;;13.55;2.05;;;8.00;99.90;;;;;;5024707;28;20449;-70
2024/02/17 10:21:55;;;;;;;14.40;2.80;;;8.10;99.90;;;;;;5020161;28;20131;-70
2024/02/17 10:24:21;;;;;;;9.57;1.45;;;8.30;99.90;;;;;;5025270;28;20376;-70
2024/02/17 10:26:54;;;;;;;12.00;1.58;;;8.40;99.90;;;;;;5027145;28;20044;-70
2024/02/17 10:29:20;;;;;;;7.72;1.20;;;8.40;99.90;;;;;;5021012;28;20517;-70
2024/02/17 10:31:49;;;;;;;12.43;1.20;;;8.40;99.90;;;;;;5028134;28;20048;-70
2024/02/17 10:34:15;;;;;;;7.65;1.25;;;8.40;99.90;;;;;;5028239;28;20048;-70
2024/02/17 10:36:42;;;;;;;10.85;1.85;;;8.40;99.90;;;;;;5025158;28;20436;-70
2024/02/17 10:39:08;;;;;;;17.33;2.25;;;8.40;99.90;;;;;;5026854;28;20061;-71
2024/02/17 10:41:35;;;;;;;5.72;0.93;;;8.50;99.90;;;;;;4996227;28;20049;-70
2024/02/17 10:44:05;;;;;;;9.35;1.48;;;8.50;99.90;;;;;;5023287;28;20044;-70
2024/02/17 10:46:34;;;;;;;8.07;1.20;;;8.60;99.90;;;;;;5008727;28;20069;-70
2024/02/17 10:49:21;;;;;;;13.30;1.70;;;8.60;99.90;;;;;;5025958;28;20209;-70
2024/02/17 10:52:03;;;;;;;10.10;1.40;;;8.60;99.90;;;;;;5041301;28;20136;-70
2024/02/17 10:54:44;;;;;;;10.13;1.30;;;8.60;99.90;;;;;;5019738;28;20098;-70
2024/02/17 10:57:13;;;;;;;9.25;1.27;;;8.80;99.90;;;;;;5020590;28;20561;-70
2024/02/17 10:59:42;;;;;;;12.68;1.33;;;9.00;99.90;;;;;;5018750;28;20430;-70
2024/02/17 11:02:11;;;;;;;5.05;0.80;;;9.00;99.90;;;;;;5019593;28;20135;-70
2024/02/17 11:04:38;;;;;;;21.23;2.92;;;9.20;99.90;;;;;;5020005;28;20100;-70
2024/02/17 11:07:04;;;;;;;13.77;1.83;;;9.40;99.90;;;;;;5019488;28;20049;-69
2024/02/17 11:09:30;;;;;;;11.32;1.20;;;9.40;97.50;;;;;;5025506;28;20044;-70
2024/02/17 11:12:28;;;;;;;12.95;1.58;;;9.40;99.90;;;;;;5027850;28;20040;-70
2024/02/17 11:15:10;;;;;;;12.30;1.65;;;9.20;88.30;;;;;;5016303;28;20101;-70
2024/02/17 11:17:50;;;;;;;13.95;1.40;;;9.10;93.10;;;;;;5035695;28;20133;-70
2024/02/17 11:20:18;;;;;;;12.40;1.88;;;9.00;93.80;;;;;;5037899;28;20497;-70
2024/02/17 11:22:50;;;;;;;16.63;1.30;;;9.20;99.50;;;;;;5020252;28;20210;-70
2024/02/17 11:25:35;;;;;;;7.50;1.20;;;9.30;97.90;;;;;;5018654;28;20053;-70
2024/02/17 11:28:16;;;;;;;11.20;1.70;;;9.30;74.50;;;;;;5019611;28;20563;-70
2024/02/17 11:30:56;;;;;;;11.98;1.45;;;9.20;71.80;;;;;;5001934;28;20047;-69
2024/02/17 11:33:32;;;;;;;8.25;1.13;;;9.20;83.30;;;;;;5018141;28;20057;-70
2024/02/17 11:36:01;;;;;;;8.00;1.00;;;9.00;75.40;;;;;;5021157;28;20049;-70
2024/02/17 11:38:28;;;;;;;9.45;1.90;;;9.00;85.20;;;;;;5021246;28;20045;-70
2024/02/17 11:40:56;;;;;;;9.13;1.40;;;8.90;85.30;;;;;;5009177;28;20048;-70
2024/02/17 11:43:29;;;;;;;4.22;1.08;;;8.80;85.30;;;;;;5005813;28;20084;-69
2024/02/17 11:45:56;;;;;;;12.77;1.25;;;8.60;72.90;;;;;;4999510;28;20147;-69
2024/02/17 11:48:25;;;;;;;9.55;1.33;;;8.60;78.30;;;;;;5008417;28;20036;-69
2024/02/17 11:51:04;;;;;;;6.80;1.00;;;8.60;76.20;;;;;;5026763;28;20143;-69
2024/02/17 11:53:31;;;;;;;9.30;1.10;;;8.90;86.10;;;;;;5025975;28;20323;-69
2024/02/17 11:55:59;;;;;;;6.88;1.27;;;9.20;91.50;;;;;;5025144;28;20052;-69
2024/02/17 11:58:25;;;;;;;6.72;1.63;;;9.40;83.80;;;;;;5004651;28;20183;-70
2024/02/17 12:00:58;;;;;;;8.65;1.35;;;9.40;54.50;;;;;;5019523;28;20041;-69
2024/02/17 12:03:31;;;;;;;8.23;1.23;;;9.30;55.50;;;;;;5018304;28;20518;-69
2024/02/17 12:06:01;;;;;;;6.60;1.13;;;9.20;61.20;;;;;;5028841;28;20541;-69
2024/02/17 12:08:28;;;;;;;9.30;3.38;;;9.20;69.80;;;;;;5006432;28;20488;-68
2024/02/17 12:10:53;;;;;;;9.82;1.05;;;9.30;67.70;;;;;;5026027;28;20081;-69
2024/02/17 12:13:19;;;;;;;6.10;1.15;;;9.30;64.70;;;;;;5012095;28;20087;-69
2024/02/17 12:15:46;;;;;;;8.80;1.52;;;9.30;58.80;;;;;;5026485;28;20069;-69
2024/02/17 12:18:12;;;;;;;7.38;1.17;;;9.30;57.70;;;;;;5028875;28;20053;-68
2024/02/17 12:20:38;;;;;;;8.27;1.27;;;9.50;63.00;;;;;;5024275;28;20049;-68
2024/02/17 12:23:08;;;;;;;8.70;1.40;;;9.50;54.50;;;;;;5023692;28;20059;-69
2024/02/17 12:25:35;;;;;;;;;;;9.50;47.40;;;;;;5044537;28;20053;-69
2024/02/17 12:28:02;;;;;;;8.70;0.77;;;9.60;51.80;;;;;;5026630;28;20326;-68
2024/02/17 12:30:30;;;;;;;16.08;2.17;;;9.50;33.10;;;;;;5024349;28;20195;-68
2024/02/17 12:33:11;;;;;;;7.05;1.00;;;9.40;32.60;;;;;;5022321;28;20435;-69
2024/02/17 12:35:43;;;;;;;8.48;1.38;;;9.30;36.20;;;;;;5041358;28;20564;-69
2024/02/17 12:38:12;;;;;;;7.63;1.25;;;9.30;49.40;;;;;;5017358;28;20053;-68
2024/02/17 12:40:38;;;;;;;7.70;1.10;;;9.40;52.40;;;;;;5024578;28;20110;-68
2024/02/17 12:43:06;;;;;;;8.93;1.33;;;9.60;53.30;;;;;;5019701;28;20065;-68
2024/02/17 12:45:32;;;;;;;6.93;2.10;;;9.80;46.20;;;;;;5027766;28;20098;-68
2024/02/17 12:48:03;;;;;;;12.95;1.63;;;10.00;55.60;;;;;;5018375;28;20041;-68
2024/02/17 12:50:29;;;;;;;11.07;2.03;;;10.30;53.70;;;;;;5038774;28;20485;-68
2024/02/17 12:53:25;;;;;;;11.02;1.98;;;10.50;40.20;;;;;;5008644;28;20052;-68